Antonios — SY8410 — position and weather

sailwx.info

Track history (hours):
 
Tides and Currents Weather Stations Pressure Air Temp Water Temp Dewpoint Dewpoint Depression Visibility Wind Speed Wind Dir Waves Ship Positions

Antonios

Last reported at 2016-Jul-24 11:34 UTC. Time now 2016-Jul-29 19:50 UTC.
Position N 37°08' E 025°42'.

Length 57 m; draft 4 m.

Type: Tanker. MMSI: 239191300.

Date/timePositionNaut miles runAvg speedWind from/ knotsBaromVisibWave heightAir tempDewpointWater temp
2016-Jul-24 11:34N 37°08' E 025°42'11 7.2
2016-Jul-24 10:03N 37°12' E 025°29'2 1.2
2016-Jul-24 08:30N 37°14' E 025°30'8 8.8
2016-Jul-24 07:34N 37°16' E 025°20'10 9.7
2016-Jul-24 06:33N 37°18' E 025°08'10 9.5
2016-Jul-24 05:33N 37°21' E 024°57'10 9.6
2016-Jul-24 04:34N 37°23' E 024°45'24 9.6
2016-Jul-24 02:06N 37°31' E 024°17'9 9.8
2016-Jul-24 01:11N 37°34' E 024°06'610.0
2016-Jul-24 00:34N 37°35' E 023°59'1010.2
2016-Jul-23 23:34N 37°39' E 023°46'9 9.4
2016-Jul-23 22:34N 37°46' E 023°39'10 9.6
2016-Jul-23 21:34N 37°50' E 023°28'1010.0
2016-Jul-23 20:33N 37°53' E 023°16'8 8.4
2016-Jul-23 19:33N 37°55' E 023°05'0 0.0
2016-Jul-23 18:33N 37°55' E 023°05'0 0.0
2016-Jul-23 17:33N 37°55' E 023°05'0 0.0
2016-Jul-23 16:33N 37°55' E 023°05'0 0.0
2016-Jul-23 15:33N 37°55' E 023°05'0 0.0
2016-Jul-23 14:33N 37°55' E 023°05'0 0.0
2016-Jul-23 13:33N 37°55' E 023°05'0 0.0
2016-Jul-23 12:33N 37°55' E 023°05'0 0.0
2016-Jul-23 11:33N 37°55' E 023°05'1 1.0
2016-Jul-23 10:32N 37°55' E 023°04'0 0.0
2016-Jul-23 09:33N 37°55' E 023°04'1 0.6
2016-Jul-23 08:32N 37°54' E 023°05'1010.3
2016-Jul-23 07:34N 37°53' E 023°17'1110.6
2016-Jul-23 06:34N 37°50' E 023°30'19 9.4
2016-Jul-23 04:33N 37°39' E 023°50'1010.2
2016-Jul-23 03:33N 37°35' E 024°02'1010.2
2016-Jul-23 02:32N 37°32' E 024°14'3010.0
2016-Jul-22 23:34N 37°22' E 024°49'1110.0
2016-Jul-22 22:27N 37°19' E 025°03'910.2
2016-Jul-22 21:34N 37°18' E 025°14'1010.3
2016-Jul-22 20:34N 37°17' E 025°27'1110.2
2016-Jul-22 19:30N 37°15' E 025°40'22 0.4
2016-Jul-20 17:20N 36°59' E 025°22'5 6.5
2016-Jul-20 16:34N 37°04' E 025°20'0 0.0
2016-Jul-20 15:34N 37°04' E 025°20'0 0.0
2016-Jul-20 14:34N 37°04' E 025°20'0 0.0
2016-Jul-20 13:33N 37°04' E 025°20'0 0.0
2016-Jul-20 12:34N 37°04' E 025°20'0 0.0
2016-Jul-20 11:34N 37°04' E 025°20'0 0.0
2016-Jul-20 10:34N 37°04' E 025°20'0 0.0
2016-Jul-20 09:34N 37°04' E 025°20'0 0.0
2016-Jul-20 08:34N 37°04' E 025°20'0 0.0
2016-Jul-20 07:34N 37°04' E 025°20'0 0.0
2016-Jul-20 06:34N 37°04' E 025°20'0 0.0
2016-Jul-20 05:34N 37°04' E 025°20'0 0.0
2016-Jul-20 04:34N 37°04' E 025°20'0 0.0
2016-Jul-20 03:34N 37°04' E 025°20'0 0.0
2016-Jul-20 02:34N 37°04' E 025°20'1 1.4
2016-Jul-20 01:34N 37°05' E 025°20'2 2.1
2016-Jul-20 00:34N 37°06' E 025°22'0 0.0
2016-Jul-19 23:34N 37°06' E 025°22'0 0.0
2016-Jul-19 22:34N 37°06' E 025°22'2 2.3
2016-Jul-19 21:34N 37°06' E 025°20'2 1.7
2016-Jul-19 20:34N 37°04' E 025°20'0 0.0
2016-Jul-19 19:33N 37°04' E 025°21'0 0.0
2016-Jul-19 18:33N 37°04' E 025°20'0 0.0
2016-Jul-19 17:33N 37°04' E 025°20'  
Track history (hours):
 
Tides and Currents Weather Stations Pressure Air Temp Water Temp Dewpoint Dewpoint Depression Visibility Wind Speed Wind Dir Waves Ship Positions

Antonios

Last reported at 2016-Jul-24 11:34 UTC. Time now 2016-Jul-29 19:50 UTC.
Position N 37°08' E 025°42'.

Length 57 m; draft 4 m.

Type: Tanker. MMSI: 239191300.

Date/timePositionNaut miles runAvg speedWind from/ knotsBaromVisibWave heightAir tempDewpointWater temp
2016-Jul-24 11:34N 37°08' E 025°42'11 7.2
2016-Jul-24 10:03N 37°12' E 025°29'2 1.2
2016-Jul-24 08:30N 37°14' E 025°30'8 8.8
2016-Jul-24 07:34N 37°16' E 025°20'10 9.7
2016-Jul-24 06:33N 37°18' E 025°08'10 9.5
2016-Jul-24 05:33N 37°21' E 024°57'10 9.6
2016-Jul-24 04:34N 37°23' E 024°45'24 9.6
2016-Jul-24 02:06N 37°31' E 024°17'9 9.8
2016-Jul-24 01:11N 37°34' E 024°06'610.0
2016-Jul-24 00:34N 37°35' E 023°59'1010.2
2016-Jul-23 23:34N 37°39' E 023°46'9 9.4
2016-Jul-23 22:34N 37°46' E 023°39'10 9.6
2016-Jul-23 21:34N 37°50' E 023°28'1010.0
2016-Jul-23 20:33N 37°53' E 023°16'8 8.4
2016-Jul-23 19:33N 37°55' E 023°05'0 0.0
2016-Jul-23 18:33N 37°55' E 023°05'0 0.0
2016-Jul-23 17:33N 37°55' E 023°05'0 0.0
2016-Jul-23 16:33N 37°55' E 023°05'0 0.0
2016-Jul-23 15:33N 37°55' E 023°05'0 0.0
2016-Jul-23 14:33N 37°55' E 023°05'0 0.0
2016-Jul-23 13:33N 37°55' E 023°05'0 0.0
2016-Jul-23 12:33N 37°55' E 023°05'0 0.0
2016-Jul-23 11:33N 37°55' E 023°05'1 1.0
2016-Jul-23 10:32N 37°55' E 023°04'0 0.0
2016-Jul-23 09:33N 37°55' E 023°04'1 0.6
2016-Jul-23 08:32N 37°54' E 023°05'1010.3
2016-Jul-23 07:34N 37°53' E 023°17'1110.6
2016-Jul-23 06:34N 37°50' E 023°30'19 9.4
2016-Jul-23 04:33N 37°39' E 023°50'1010.2
2016-Jul-23 03:33N 37°35' E 024°02'1010.2
2016-Jul-23 02:32N 37°32' E 024°14'3010.0
2016-Jul-22 23:34N 37°22' E 024°49'1110.0
2016-Jul-22 22:27N 37°19' E 025°03'910.2
2016-Jul-22 21:34N 37°18' E 025°14'1010.3
2016-Jul-22 20:34N 37°17' E 025°27'1110.2
2016-Jul-22 19:30N 37°15' E 025°40'22 0.4
2016-Jul-20 17:20N 36°59' E 025°22'5 6.5
2016-Jul-20 16:34N 37°04' E 025°20'0 0.0
2016-Jul-20 15:34N 37°04' E 025°20'0 0.0
2016-Jul-20 14:34N 37°04' E 025°20'0 0.0
2016-Jul-20 13:33N 37°04' E 025°20'0 0.0
2016-Jul-20 12:34N 37°04' E 025°20'0 0.0
2016-Jul-20 11:34N 37°04' E 025°20'0 0.0
2016-Jul-20 10:34N 37°04' E 025°20'0 0.0
2016-Jul-20 09:34N 37°04' E 025°20'0 0.0
2016-Jul-20 08:34N 37°04' E 025°20'0 0.0
2016-Jul-20 07:34N 37°04' E 025°20'0 0.0
2016-Jul-20 06:34N 37°04' E 025°20'0 0.0
2016-Jul-20 05:34N 37°04' E 025°20'0 0.0
2016-Jul-20 04:34N 37°04' E 025°20'0 0.0
2016-Jul-20 03:34N 37°04' E 025°20'0 0.0
2016-Jul-20 02:34N 37°04' E 025°20'1 1.4
2016-Jul-20 01:34N 37°05' E 025°20'2 2.1
2016-Jul-20 00:34N 37°06' E 025°22'0 0.0
2016-Jul-19 23:34N 37°06' E 025°22'0 0.0
2016-Jul-19 22:34N 37°06' E 025°22'2 2.3
2016-Jul-19 21:34N 37°06' E 025°20'2 1.7
2016-Jul-19 20:34N 37°04' E 025°20'0 0.0
2016-Jul-19 19:33N 37°04' E 025°21'0 0.0
2016-Jul-19 18:33N 37°04' E 025°20'0 0.0
2016-Jul-19 17:33N 37°04' E 025°20'  

Dump ship's entire track history